sensor_id;sensor_type;location;lat;lon;timestamp;P1;durP1;ratioP1;P2;durP2;ratioP2
51810;SDS011;52468;40.116;18.296;2022-07-15T00:00:15;5.33;;;2.57;;
51810;SDS011;52468;40.116;18.296;2022-07-15T00:02:43;9.07;;;2.17;;
51810;SDS011;52468;40.116;18.296;2022-07-15T00:05:11;3.43;;;2.43;;
51810;SDS011;52468;40.116;18.296;2022-07-15T00:07:39;4.00;;;3.30;;
51810;SDS011;52468;40.116;18.296;2022-07-15T00:10:07;3.43;;;2.30;;
51810;SDS011;52468;40.116;18.296;2022-07-15T00:12:48;3.33;;;2.63;;
51810;SDS011;52468;40.116;18.296;2022-07-15T00:15:18;4.40;;;2.40;;
51810;SDS011;52468;40.116;18.296;2022-07-15T00:17:47;4.17;;;2.60;;
51810;SDS011;52468;40.116;18.296;2022-07-15T00:20:16;9.03;;;2.53;;
51810;SDS011;52468;40.116;18.296;2022-07-15T00:22:44;4.03;;;2.70;;
51810;SDS011;52468;40.116;18.296;2022-07-15T00:25:13;3.13;;;2.57;;
51810;SDS011;52468;40.116;18.296;2022-07-15T00:30:40;4.97;;;2.50;;
51810;SDS011;52468;40.116;18.296;2022-07-15T00:33:09;3.10;;;2.30;;
51810;SDS011;52468;40.116;18.296;2022-07-15T00:35:38;4.83;;;2.63;;
51810;SDS011;52468;40.116;18.296;2022-07-15T00:38:07;5.43;;;2.67;;
51810;SDS011;52468;40.116;18.296;2022-07-15T00:40:46;8.70;;;3.00;;
51810;SDS011;52468;40.116;18.296;2022-07-15T00:43:16;7.77;;;3.03;;
51810;SDS011;52468;40.116;18.296;2022-07-15T00:45:44;5.43;;;3.00;;
51810;SDS011;52468;40.116;18.296;2022-07-15T00:48:13;4.50;;;3.07;;
51810;SDS011;52468;40.116;18.296;2022-07-15T00:50:45;3.17;;;2.67;;
51810;SDS011;52468;40.116;18.296;2022-07-15T00:53:15;3.70;;;2.50;;
51810;SDS011;52468;40.116;18.296;2022-07-15T00:55:45;6.63;;;2.80;;
51810;SDS011;52468;40.116;18.296;2022-07-15T00:58:18;6.20;;;3.50;;
51810;SDS011;52468;40.116;18.296;2022-07-15T01:00:50;4.63;;;2.43;;
51810;SDS011;52468;40.116;18.296;2022-07-15T01:03:19;5.10;;;2.90;;
51810;SDS011;52468;40.116;18.296;2022-07-15T01:05:47;5.53;;;2.87;;
51810;SDS011;52468;40.116;18.296;2022-07-15T01:08:15;5.17;;;3.07;;
51810;SDS011;52468;40.116;18.296;2022-07-15T01:10:47;3.87;;;2.90;;
51810;SDS011;52468;40.116;18.296;2022-07-15T01:13:17;7.13;;;3.10;;
51810;SDS011;52468;40.116;18.296;2022-07-15T01:15:49;3.65;;;2.90;;
51810;SDS011;52468;40.116;18.296;2022-07-15T01:18:18;8.13;;;3.30;;
51810;SDS011;52468;40.116;18.296;2022-07-15T01:20:46;3.60;;;3.30;;
51810;SDS011;52468;40.116;18.296;2022-07-15T01:23:16;5.40;;;3.30;;
51810;SDS011;52468;40.116;18.296;2022-07-15T01:26:10;6.30;;;3.50;;
51810;SDS011;52468;40.116;18.296;2022-07-15T01:28:41;6.13;;;3.70;;
51810;SDS011;52468;40.116;18.296;2022-07-15T01:31:11;4.87;;;3.60;;
51810;SDS011;52468;40.116;18.296;2022-07-15T01:33:41;8.63;;;3.53;;
51810;SDS011;52468;40.116;18.296;2022-07-15T01:36:09;4.20;;;2.97;;
51810;SDS011;52468;40.116;18.296;2022-07-15T01:38:40;5.57;;;3.47;;
51810;SDS011;52468;40.116;18.296;2022-07-15T01:41:14;9.17;;;3.67;;
51810;SDS011;52468;40.116;18.296;2022-07-15T01:43:43;9.77;;;3.33;;
51810;SDS011;52468;40.116;18.296;2022-07-15T01:46:11;3.77;;;3.23;;
51810;SDS011;52468;40.116;18.296;2022-07-15T01:48:40;5.60;;;3.73;;
51810;SDS011;52468;40.116;18.296;2022-07-15T01:51:40;5.37;;;3.50;;
51810;SDS011;52468;40.116;18.296;2022-07-15T01:54:08;4.83;;;3.23;;
51810;SDS011;52468;40.116;18.296;2022-07-15T01:56:36;5.13;;;4.63;;
51810;SDS011;52468;40.116;18.296;2022-07-15T01:59:05;6.53;;;3.03;;
51810;SDS011;52468;40.116;18.296;2022-07-15T02:01:33;7.33;;;3.07;;
51810;SDS011;52468;40.116;18.296;2022-07-15T02:04:10;5.30;;;4.33;;
51810;SDS011;52468;40.116;18.296;2022-07-15T02:06:40;6.10;;;3.67;;
51810;SDS011;52468;40.116;18.296;2022-07-15T02:09:10;4.70;;;3.27;;
51810;SDS011;52468;40.116;18.296;2022-07-15T02:11:42;7.13;;;3.43;;
51810;SDS011;52468;40.116;18.296;2022-07-15T02:14:11;4.57;;;3.50;;
51810;SDS011;52468;40.116;18.296;2022-07-15T02:16:40;8.83;;;4.20;;
51810;SDS011;52468;40.116;18.296;2022-07-15T02:19:12;7.60;;;3.72;;
51810;SDS011;52468;40.116;18.296;2022-07-15T02:21:41;4.97;;;3.83;;
51810;SDS011;52468;40.116;18.296;2022-07-15T02:24:09;4.77;;;3.80;;
51810;SDS011;52468;40.116;18.296;2022-07-15T02:26:37;11.73;;;4.33;;
51810;SDS011;52468;40.116;18.296;2022-07-15T02:29:05;4.90;;;4.40;;
51810;SDS011;52468;40.116;18.296;2022-07-15T02:31:32;5.27;;;4.67;;
51810;SDS011;52468;40.116;18.296;2022-07-15T02:34:02;6.77;;;4.40;;
51810;SDS011;52468;40.116;18.296;2022-07-15T02:36:30;6.27;;;5.23;;
51810;SDS011;52468;40.116;18.296;2022-07-15T02:38:58;8.73;;;5.33;;
51810;SDS011;52468;40.116;18.296;2022-07-15T02:41:30;7.43;;;6.20;;
51810;SDS011;52468;40.116;18.296;2022-07-15T02:44:02;9.30;;;6.23;;
51810;SDS011;52468;40.116;18.296;2022-07-15T02:46:31;13.17;;;6.13;;
51810;SDS011;52468;40.116;18.296;2022-07-15T02:48:59;9.00;;;5.87;;
51810;SDS011;52468;40.116;18.296;2022-07-15T02:51:28;8.47;;;5.57;;
51810;SDS011;52468;40.116;18.296;2022-07-15T02:53:56;6.63;;;4.67;;
51810;SDS011;52468;40.116;18.296;2022-07-15T02:56:24;10.30;;;6.80;;
51810;SDS011;52468;40.116;18.296;2022-07-15T02:58:53;10.23;;;5.43;;
51810;SDS011;52468;40.116;18.296;2022-07-15T03:01:21;8.53;;;5.43;;
51810;SDS011;52468;40.116;18.296;2022-07-15T03:03:50;11.57;;;5.73;;
51810;SDS011;52468;40.116;18.296;2022-07-15T03:06:22;8.70;;;6.07;;
51810;SDS011;52468;40.116;18.296;2022-07-15T03:08:49;9.93;;;5.53;;
51810;SDS011;52468;40.116;18.296;2022-07-15T03:11:19;5.83;;;5.23;;
51810;SDS011;52468;40.116;18.296;2022-07-15T03:13:49;8.90;;;7.33;;
51810;SDS011;52468;40.116;18.296;2022-07-15T03:16:17;7.47;;;4.50;;
51810;SDS011;52468;40.116;18.296;2022-07-15T03:18:48;5.90;;;5.27;;
51810;SDS011;52468;40.116;18.296;2022-07-15T03:21:17;5.20;;;4.40;;
51810;SDS011;52468;40.116;18.296;2022-07-15T03:23:48;9.07;;;5.77;;
51810;SDS011;52468;40.116;18.296;2022-07-15T03:26:16;10.30;;;5.13;;
51810;SDS011;52468;40.116;18.296;2022-07-15T03:28:45;5.80;;;5.20;;
51810;SDS011;52468;40.116;18.296;2022-07-15T03:31:13;5.43;;;4.93;;
51810;SDS011;52468;40.116;18.296;2022-07-15T03:33:41;9.77;;;4.70;;
51810;SDS011;52468;40.116;18.296;2022-07-15T03:36:11;9.07;;;6.30;;
51810;SDS011;52468;40.116;18.296;2022-07-15T03:38:39;5.47;;;4.93;;
51810;SDS011;52468;40.116;18.296;2022-07-15T03:41:07;7.67;;;5.23;;
51810;SDS011;52468;40.116;18.296;2022-07-15T03:43:37;9.53;;;5.83;;
51810;SDS011;52468;40.116;18.296;2022-07-15T03:46:05;6.57;;;5.27;;
51810;SDS011;52468;40.116;18.296;2022-07-15T03:48:34;8.13;;;5.37;;
51810;SDS011;52468;40.116;18.296;2022-07-15T03:51:02;9.37;;;5.40;;
51810;SDS011;52468;40.116;18.296;2022-07-15T03:53:32;5.70;;;4.87;;
51810;SDS011;52468;40.116;18.296;2022-07-15T03:56:00;7.67;;;4.10;;
51810;SDS011;52468;40.116;18.296;2022-07-15T03:58:28;4.07;;;3.47;;
51810;SDS011;52468;40.116;18.296;2022-07-15T04:00:56;8.03;;;3.93;;
51810;SDS011;52468;40.116;18.296;2022-07-15T04:03:26;11.37;;;3.77;;
51810;SDS011;52468;40.116;18.296;2022-07-15T04:05:54;10.33;;;4.40;;
51810;SDS011;52468;40.116;18.296;2022-07-15T04:08:22;9.27;;;3.90;;
51810;SDS011;52468;40.116;18.296;2022-07-15T04:10:50;8.37;;;3.73;;
51810;SDS011;52468;40.116;18.296;2022-07-15T04:13:18;8.37;;;4.90;;
51810;SDS011;52468;40.116;18.296;2022-07-15T04:15:46;6.93;;;4.63;;
51810;SDS011;52468;40.116;18.296;2022-07-15T04:18:14;9.30;;;4.27;;
51810;SDS011;52468;40.116;18.296;2022-07-15T04:20:42;8.27;;;4.03;;
51810;SDS011;52468;40.116;18.296;2022-07-15T04:23:09;10.53;;;4.60;;
51810;SDS011;52468;40.116;18.296;2022-07-15T04:25:37;6.03;;;3.20;;
51810;SDS011;52468;40.116;18.296;2022-07-15T04:28:08;6.27;;;3.63;;
51810;SDS011;52468;40.116;18.296;2022-07-15T04:30:36;9.57;;;4.00;;
51810;SDS011;52468;40.116;18.296;2022-07-15T04:33:04;8.27;;;3.93;;
51810;SDS011;52468;40.116;18.296;2022-07-15T04:35:34;11.80;;;3.90;;
51810;SDS011;52468;40.116;18.296;2022-07-15T04:38:05;9.60;;;3.10;;
51810;SDS011;52468;40.116;18.296;2022-07-15T04:40:33;10.57;;;4.70;;
51810;SDS011;52468;40.116;18.296;2022-07-15T04:43:04;14.83;;;4.20;;
51810;SDS011;52468;40.116;18.296;2022-07-15T04:45:33;16.20;;;3.50;;
51810;SDS011;52468;40.116;18.296;2022-07-15T04:48:01;9.30;;;3.10;;
51810;SDS011;52468;40.116;18.296;2022-07-15T04:50:33;7.60;;;3.83;;
51810;SDS011;52468;40.116;18.296;2022-07-15T04:53:13;6.00;;;3.47;;
51810;SDS011;52468;40.116;18.296;2022-07-15T04:55:45;11.20;;;3.83;;
51810;SDS011;52468;40.116;18.296;2022-07-15T04:58:13;10.70;;;3.53;;
51810;SDS011;52468;40.116;18.296;2022-07-15T05:00:42;9.27;;;3.80;;
51810;SDS011;52468;40.116;18.296;2022-07-15T05:03:13;7.97;;;3.37;;
51810;SDS011;52468;40.116;18.296;2022-07-15T05:05:41;7.27;;;3.60;;
51810;SDS011;52468;40.116;18.296;2022-07-15T05:08:12;4.80;;;2.90;;
51810;SDS011;52468;40.116;18.296;2022-07-15T05:13:12;7.10;;;3.00;;
51810;SDS011;52468;40.116;18.296;2022-07-15T05:15:40;8.67;;;3.40;;
51810;SDS011;52468;40.116;18.296;2022-07-15T05:18:20;5.03;;;3.13;;
51810;SDS011;52468;40.116;18.296;2022-07-15T05:20:49;2.90;;;2.70;;
51810;SDS011;52468;40.116;18.296;2022-07-15T05:23:17;4.30;;;2.47;;
51810;SDS011;52468;40.116;18.296;2022-07-15T05:25:52;2.60;;;2.37;;
51810;SDS011;52468;40.116;18.296;2022-07-15T05:28:21;4.60;;;3.07;;
51810;SDS011;52468;40.116;18.296;2022-07-15T05:30:49;5.23;;;3.33;;
51810;SDS011;52468;40.116;18.296;2022-07-15T05:33:18;4.07;;;2.60;;
51810;SDS011;52468;40.116;18.296;2022-07-15T05:35:47;4.97;;;2.80;;
51810;SDS011;52468;40.116;18.296;2022-07-15T05:38:20;4.32;;;2.78;;
51810;SDS011;52468;40.116;18.296;2022-07-15T05:40:52;4.63;;;2.80;;
51810;SDS011;52468;40.116;18.296;2022-07-15T05:43:22;3.27;;;2.67;;
51810;SDS011;52468;40.116;18.296;2022-07-15T05:45:51;5.23;;;2.77;;
51810;SDS011;52468;40.116;18.296;2022-07-15T05:48:21;3.20;;;2.47;;
51810;SDS011;52468;40.116;18.296;2022-07-15T05:50:52;6.83;;;2.47;;
51810;SDS011;52468;40.116;18.296;2022-07-15T05:53:20;3.67;;;2.17;;
51810;SDS011;52468;40.116;18.296;2022-07-15T05:55:49;6.10;;;2.80;;
51810;SDS011;52468;40.116;18.296;2022-07-15T05:58:21;5.15;;;2.13;;
51810;SDS011;52468;40.116;18.296;2022-07-15T06:00:50;4.33;;;2.50;;
51810;SDS011;52468;40.116;18.296;2022-07-15T06:03:19;7.33;;;2.60;;
51810;SDS011;52468;40.116;18.296;2022-07-15T06:05:47;3.90;;;2.73;;
51810;SDS011;52468;40.116;18.296;2022-07-15T06:08:15;4.80;;;2.50;;
51810;SDS011;52468;40.116;18.296;2022-07-15T06:10:44;2.83;;;2.40;;
51810;SDS011;52468;40.116;18.296;2022-07-15T06:13:13;4.80;;;2.87;;
51810;SDS011;52468;40.116;18.296;2022-07-15T06:15:43;11.70;;;3.07;;
51810;SDS011;52468;40.116;18.296;2022-07-15T06:18:16;3.67;;;2.30;;
51810;SDS011;52468;40.116;18.296;2022-07-15T06:20:45;5.87;;;3.20;;
51810;SDS011;52468;40.116;18.296;2022-07-15T06:23:13;2.97;;;2.23;;
51810;SDS011;52468;40.116;18.296;2022-07-15T06:25:41;5.17;;;2.27;;
51810;SDS011;52468;40.116;18.296;2022-07-15T06:28:10;7.30;;;2.17;;
51810;SDS011;52468;40.116;18.296;2022-07-15T06:30:38;2.80;;;2.20;;
51810;SDS011;52468;40.116;18.296;2022-07-15T06:33:06;6.23;;;2.47;;
51810;SDS011;52468;40.116;18.296;2022-07-15T06:35:34;6.27;;;2.27;;
51810;SDS011;52468;40.116;18.296;2022-07-15T06:38:02;4.07;;;1.93;;
51810;SDS011;52468;40.116;18.296;2022-07-15T06:40:30;3.13;;;1.90;;
51810;SDS011;52468;40.116;18.296;2022-07-15T06:42:58;3.00;;;1.80;;
51810;SDS011;52468;40.116;18.296;2022-07-15T06:45:46;3.90;;;2.00;;
51810;SDS011;52468;40.116;18.296;2022-07-15T06:48:14;4.20;;;2.17;;
51810;SDS011;52468;40.116;18.296;2022-07-15T06:50:42;1.77;;;1.63;;
51810;SDS011;52468;40.116;18.296;2022-07-15T06:53:14;3.87;;;2.20;;
51810;SDS011;52468;40.116;18.296;2022-07-15T06:55:41;2.47;;;1.90;;
51810;SDS011;52468;40.116;18.296;2022-07-15T06:58:09;3.20;;;1.80;;
51810;SDS011;52468;40.116;18.296;2022-07-15T07:00:37;3.03;;;1.93;;
51810;SDS011;52468;40.116;18.296;2022-07-15T07:03:05;2.00;;;1.80;;
51810;SDS011;52468;40.116;18.296;2022-07-15T07:05:33;3.50;;;1.93;;
51810;SDS011;52468;40.116;18.296;2022-07-15T07:08:03;1.63;;;1.50;;
51810;SDS011;52468;40.116;18.296;2022-07-15T07:10:31;3.08;;;2.03;;
51810;SDS011;52468;40.116;18.296;2022-07-15T07:13:00;2.80;;;2.13;;
51810;SDS011;52468;40.116;18.296;2022-07-15T07:15:28;4.32;;;1.70;;
51810;SDS011;52468;40.116;18.296;2022-07-15T07:17:55;2.55;;;1.63;;
51810;SDS011;52468;40.116;18.296;2022-07-15T07:20:23;3.35;;;1.67;;
51810;SDS011;52468;40.116;18.296;2022-07-15T07:22:51;2.28;;;1.70;;
51810;SDS011;52468;40.116;18.296;2022-07-15T07:25:19;2.30;;;1.88;;
51810;SDS011;52468;40.116;18.296;2022-07-15T07:27:47;3.55;;;1.17;;
51810;SDS011;52468;40.116;18.296;2022-07-15T07:30:15;3.25;;;1.30;;
51810;SDS011;52468;40.116;18.296;2022-07-15T07:32:43;1.52;;;1.38;;
51810;SDS011;52468;40.116;18.296;2022-07-15T07:35:11;3.22;;;1.10;;
51810;SDS011;52468;40.116;18.296;2022-07-15T07:37:39;5.22;;;1.67;;
51810;SDS011;52468;40.116;18.296;2022-07-15T07:40:07;2.95;;;1.27;;
51810;SDS011;52468;40.116;18.296;2022-07-15T07:42:36;2.03;;;1.33;;
51810;SDS011;52468;40.116;18.296;2022-07-15T07:45:05;1.20;;;1.10;;
51810;SDS011;52468;40.116;18.296;2022-07-15T07:47:34;1.40;;;1.30;;
51810;SDS011;52468;40.116;18.296;2022-07-15T07:50:07;3.88;;;1.40;;
51810;SDS011;52468;40.116;18.296;2022-07-15T07:52:35;1.90;;;1.40;;
51810;SDS011;52468;40.116;18.296;2022-07-15T07:55:04;3.40;;;1.65;;
51810;SDS011;52468;40.116;18.296;2022-07-15T07:57:32;1.67;;;1.52;;
51810;SDS011;52468;40.116;18.296;2022-07-15T08:00:01;2.25;;;2.03;;
51810;SDS011;52468;40.116;18.296;2022-07-15T08:02:38;5.90;;;1.50;;
51810;SDS011;52468;40.116;18.296;2022-07-15T08:05:06;2.45;;;1.30;;
51810;SDS011;52468;40.116;18.296;2022-07-15T08:07:35;2.95;;;1.20;;
51810;SDS011;52468;40.116;18.296;2022-07-15T08:10:03;2.25;;;1.70;;
51810;SDS011;52468;40.116;18.296;2022-07-15T08:12:32;4.75;;;1.67;;
51810;SDS011;52468;40.116;18.296;2022-07-15T08:15:00;1.60;;;0.88;;
51810;SDS011;52468;40.116;18.296;2022-07-15T08:17:28;2.40;;;1.25;;
51810;SDS011;52468;40.116;18.296;2022-07-15T08:19:56;1.83;;;1.50;;
51810;SDS011;52468;40.116;18.296;2022-07-15T08:22:24;4.28;;;1.08;;
51810;SDS011;52468;40.116;18.296;2022-07-15T08:24:52;3.83;;;1.95;;
51810;SDS011;52468;40.116;18.296;2022-07-15T08:27:22;2.67;;;2.13;;
51810;SDS011;52468;40.116;18.296;2022-07-15T08:29:50;2.72;;;1.40;;
51810;SDS011;52468;40.116;18.296;2022-07-15T08:32:18;3.72;;;1.88;;
51810;SDS011;52468;40.116;18.296;2022-07-15T08:34:46;1.70;;;1.48;;
51810;SDS011;52468;40.116;18.296;2022-07-15T08:37:14;2.50;;;1.60;;
51810;SDS011;52468;40.116;18.296;2022-07-15T08:39:42;2.28;;;1.90;;
51810;SDS011;52468;40.116;18.296;2022-07-15T08:42:10;3.00;;;1.67;;
51810;SDS011;52468;40.116;18.296;2022-07-15T08:44:38;8.63;;;2.03;;
51810;SDS011;52468;40.116;18.296;2022-07-15T08:47:07;4.45;;;2.67;;
51810;SDS011;52468;40.116;18.296;2022-07-15T08:49:44;2.55;;;2.22;;
51810;SDS011;52468;40.116;18.296;2022-07-15T08:52:14;3.15;;;2.50;;
51810;SDS011;52468;40.116;18.296;2022-07-15T08:54:44;2.85;;;2.47;;
51810;SDS011;52468;40.116;18.296;2022-07-15T08:57:12;5.00;;;3.05;;
51810;SDS011;52468;40.116;18.296;2022-07-15T08:59:41;4.15;;;3.65;;
51810;SDS011;52468;40.116;18.296;2022-07-15T09:02:09;3.72;;;3.42;;
51810;SDS011;52468;40.116;18.296;2022-07-15T09:07:51;3.47;;;3.17;;
51810;SDS011;52468;40.116;18.296;2022-07-15T09:13:34;5.20;;;3.55;;
51810;SDS011;52468;40.116;18.296;2022-07-15T09:16:07;6.68;;;3.55;;
51810;SDS011;52468;40.116;18.296;2022-07-15T09:18:37;3.50;;;3.20;;
51810;SDS011;52468;40.116;18.296;2022-07-15T09:21:23;3.47;;;2.95;;
51810;SDS011;52468;40.116;18.296;2022-07-15T09:23:53;3.22;;;2.92;;
51810;SDS011;52468;40.116;18.296;2022-07-15T09:26:33;3.33;;;3.03;;
51810;SDS011;52468;40.116;18.296;2022-07-15T09:29:04;3.05;;;2.78;;
51810;SDS011;52468;40.116;18.296;2022-07-15T09:31:56;3.90;;;3.58;;
51810;SDS011;52468;40.116;18.296;2022-07-15T09:35:01;4.10;;;2.42;;
51810;SDS011;52468;40.116;18.296;2022-07-15T09:37:31;3.47;;;2.50;;
51810;SDS011;52468;40.116;18.296;2022-07-15T09:39:59;4.35;;;3.33;;
51810;SDS011;52468;40.116;18.296;2022-07-15T09:42:28;2.75;;;2.13;;
51810;SDS011;52468;40.116;18.296;2022-07-15T09:44:57;1.77;;;1.63;;
51810;SDS011;52468;40.116;18.296;2022-07-15T09:47:51;5.68;;;2.47;;
51810;SDS011;52468;40.116;18.296;2022-07-15T09:50:36;6.20;;;1.90;;
51810;SDS011;52468;40.116;18.296;2022-07-15T09:53:07;3.40;;;2.00;;
51810;SDS011;52468;40.116;18.296;2022-07-15T09:55:40;1.98;;;1.73;;
51810;SDS011;52468;40.116;18.296;2022-07-15T09:58:08;1.90;;;1.70;;
51810;SDS011;52468;40.116;18.296;2022-07-15T10:00:39;5.78;;;2.55;;
51810;SDS011;52468;40.116;18.296;2022-07-15T10:03:07;3.00;;;2.70;;
51810;SDS011;52468;40.116;18.296;2022-07-15T10:05:35;3.05;;;2.17;;
51810;SDS011;52468;40.116;18.296;2022-07-15T10:08:06;2.95;;;2.75;;
51810;SDS011;52468;40.116;18.296;2022-07-15T10:10:36;2.60;;;2.33;;
51810;SDS011;52468;40.116;18.296;2022-07-15T10:13:14;5.18;;;2.75;;
51810;SDS011;52468;40.116;18.296;2022-07-15T10:16:41;3.70;;;2.47;;
51810;SDS011;52468;40.116;18.296;2022-07-15T10:30:04;4.88;;;2.40;;
51810;SDS011;52468;40.116;18.296;2022-07-15T10:35:49;5.20;;;2.33;;
51810;SDS011;52468;40.116;18.296;2022-07-15T10:38:21;2.65;;;2.08;;
51810;SDS011;52468;40.116;18.296;2022-07-15T10:41:10;4.93;;;2.10;;
51810;SDS011;52468;40.116;18.296;2022-07-15T10:46:28;2.35;;;1.98;;
51810;SDS011;52468;40.116;18.296;2022-07-15T10:54:07;2.20;;;1.77;;
51810;SDS011;52468;40.116;18.296;2022-07-15T10:56:58;2.13;;;1.80;;
51810;SDS011;52468;40.116;18.296;2022-07-15T10:59:28;1.98;;;1.50;;
51810;SDS011;52468;40.116;18.296;2022-07-15T11:04:31;4.85;;;1.55;;
51810;SDS011;52468;40.116;18.296;2022-07-15T11:12:13;2.13;;;1.80;;
51810;SDS011;52468;40.116;18.296;2022-07-15T11:15:01;2.70;;;1.40;;
51810;SDS011;52468;40.116;18.296;2022-07-15T11:17:39;3.08;;;1.50;;
51810;SDS011;52468;40.116;18.296;2022-07-15T11:20:10;2.80;;;1.52;;
51810;SDS011;52468;40.116;18.296;2022-07-15T11:22:41;2.23;;;1.40;;
51810;SDS011;52468;40.116;18.296;2022-07-15T11:30:51;1.40;;;1.30;;
51810;SDS011;52468;40.116;18.296;2022-07-15T11:33:22;2.70;;;1.52;;
51810;SDS011;52468;40.116;18.296;2022-07-15T11:35:57;1.55;;;1.30;;
51810;SDS011;52468;40.116;18.296;2022-07-15T11:38:30;5.97;;;1.70;;
51810;SDS011;52468;40.116;18.296;2022-07-15T11:41:04;2.33;;;1.40;;
51810;SDS011;52468;40.116;18.296;2022-07-15T11:44:00;1.85;;;1.50;;
51810;SDS011;52468;40.116;18.296;2022-07-15T11:46:51;2.63;;;1.35;;
51810;SDS011;52468;40.116;18.296;2022-07-15T11:49:30;4.40;;;1.27;;
51810;SDS011;52468;40.116;18.296;2022-07-15T11:52:00;2.95;;;1.08;;
51810;SDS011;52468;40.116;18.296;2022-07-15T11:54:29;6.45;;;1.42;;
51810;SDS011;52468;40.116;18.296;2022-07-15T11:56:58;2.20;;;1.33;;
51810;SDS011;52468;40.116;18.296;2022-07-15T11:59:28;2.08;;;1.40;;
51810;SDS011;52468;40.116;18.296;2022-07-15T12:02:00;1.67;;;1.58;;
51810;SDS011;52468;40.116;18.296;2022-07-15T12:04:29;1.88;;;1.13;;
51810;SDS011;52468;40.116;18.296;2022-07-15T12:06:58;1.98;;;1.50;;
51810;SDS011;52468;40.116;18.296;2022-07-15T12:09:26;2.63;;;1.17;;
51810;SDS011;52468;40.116;18.296;2022-07-15T12:12:05;2.63;;;1.23;;
51810;SDS011;52468;40.116;18.296;2022-07-15T12:14:32;4.15;;;1.13;;
51810;SDS011;52468;40.116;18.296;2022-07-15T12:17:01;3.38;;;1.30;;
51810;SDS011;52468;40.116;18.296;2022-07-15T12:19:30;1.35;;;1.15;;
51810;SDS011;52468;40.116;18.296;2022-07-15T12:22:04;1.80;;;1.30;;
51810;SDS011;52468;40.116;18.296;2022-07-15T12:24:44;2.35;;;1.50;;
51810;SDS011;52468;40.116;18.296;2022-07-15T12:27:19;1.37;;;1.27;;
51810;SDS011;52468;40.116;18.296;2022-07-15T12:30:03;1.65;;;1.33;;
51810;SDS011;52468;40.116;18.296;2022-07-15T12:32:35;3.75;;;1.40;;
51810;SDS011;52468;40.116;18.296;2022-07-15T12:35:03;3.30;;;1.50;;
51810;SDS011;52468;40.116;18.296;2022-07-15T12:40:02;3.40;;;1.30;;
51810;SDS011;52468;40.116;18.296;2022-07-15T12:42:43;2.20;;;1.20;;
51810;SDS011;52468;40.116;18.296;2022-07-15T12:45:22;1.77;;;1.55;;
51810;SDS011;52468;40.116;18.296;2022-07-15T12:48:04;3.00;;;1.27;;
51810;SDS011;52468;40.116;18.296;2022-07-15T12:50:35;1.02;;;0.93;;
51810;SDS011;52468;40.116;18.296;2022-07-15T12:53:17;8.27;;;1.20;;
51810;SDS011;52468;40.116;18.296;2022-07-15T12:55:47;2.13;;;1.10;;
51810;SDS011;52468;40.116;18.296;2022-07-15T12:58:21;6.45;;;1.35;;
51810;SDS011;52468;40.116;18.296;2022-07-15T13:00:51;3.50;;;1.42;;
51810;SDS011;52468;40.116;18.296;2022-07-15T13:03:30;3.17;;;1.40;;
51810;SDS011;52468;40.116;18.296;2022-07-15T13:05:58;1.33;;;1.13;;
51810;SDS011;52468;40.116;18.296;2022-07-15T13:08:26;2.70;;;1.00;;
51810;SDS011;52468;40.116;18.296;2022-07-15T13:10:57;1.80;;;1.02;;
51810;SDS011;52468;40.116;18.296;2022-07-15T13:13:28;1.35;;;1.10;;
51810;SDS011;52468;40.116;18.296;2022-07-15T13:16:00;1.80;;;1.10;;
51810;SDS011;52468;40.116;18.296;2022-07-15T13:18:29;2.45;;;1.40;;
51810;SDS011;52468;40.116;18.296;2022-07-15T13:20:58;2.40;;;1.15;;
51810;SDS011;52468;40.116;18.296;2022-07-15T13:23:26;2.80;;;1.38;;
51810;SDS011;52468;40.116;18.296;2022-07-15T13:25:55;1.70;;;1.30;;
51810;SDS011;52468;40.116;18.296;2022-07-15T13:28:23;1.55;;;1.10;;
51810;SDS011;52468;40.116;18.296;2022-07-15T13:30:51;2.88;;;1.48;;
51810;SDS011;52468;40.116;18.296;2022-07-15T13:33:20;1.30;;;1.10;;
51810;SDS011;52468;40.116;18.296;2022-07-15T13:35:47;1.20;;;1.10;;
51810;SDS011;52468;40.116;18.296;2022-07-15T13:38:15;1.67;;;1.17;;
51810;SDS011;52468;40.116;18.296;2022-07-15T13:40:43;2.22;;;1.33;;
51810;SDS011;52468;40.116;18.296;2022-07-15T13:43:11;2.15;;;1.20;;
51810;SDS011;52468;40.116;18.296;2022-07-15T13:45:39;6.10;;;2.20;;
51810;SDS011;52468;40.116;18.296;2022-07-15T13:48:12;1.25;;;1.08;;
51810;SDS011;52468;40.116;18.296;2022-07-15T13:50:40;2.20;;;1.00;;
51810;SDS011;52468;40.116;18.296;2022-07-15T13:53:26;2.45;;;1.25;;
51810;SDS011;52468;40.116;18.296;2022-07-15T13:55:54;2.03;;;0.95;;
51810;SDS011;52468;40.116;18.296;2022-07-15T13:58:22;0.80;;;0.70;;
51810;SDS011;52468;40.116;18.296;2022-07-15T14:00:50;2.15;;;1.00;;
51810;SDS011;52468;40.116;18.296;2022-07-15T14:03:18;1.27;;;1.00;;
51810;SDS011;52468;40.116;18.296;2022-07-15T14:05:46;1.73;;;1.25;;
51810;SDS011;52468;40.116;18.296;2022-07-15T14:08:14;1.70;;;1.20;;
51810;SDS011;52468;40.116;18.296;2022-07-15T14:10:42;1.48;;;1.33;;
51810;SDS011;52468;40.116;18.296;2022-07-15T14:13:10;1.38;;;1.27;;
51810;SDS011;52468;40.116;18.296;2022-07-15T14:15:38;1.52;;;1.00;;
51810;SDS011;52468;40.116;18.296;2022-07-15T14:18:06;1.50;;;1.25;;
51810;SDS011;52468;40.116;18.296;2022-07-15T14:20:35;1.00;;;0.90;;
51810;SDS011;52468;40.116;18.296;2022-07-15T14:23:03;2.42;;;1.02;;
51810;SDS011;52468;40.116;18.296;2022-07-15T14:25:31;1.42;;;0.93;;
51810;SDS011;52468;40.116;18.296;2022-07-15T14:27:59;3.95;;;1.70;;
51810;SDS011;52468;40.116;18.296;2022-07-15T14:30:27;1.60;;;0.88;;
51810;SDS011;52468;40.116;18.296;2022-07-15T14:32:55;3.75;;;1.50;;
51810;SDS011;52468;40.116;18.296;2022-07-15T14:35:23;2.55;;;1.33;;
51810;SDS011;52468;40.116;18.296;2022-07-15T14:37:51;1.23;;;1.13;;
51810;SDS011;52468;40.116;18.296;2022-07-15T14:40:19;1.80;;;1.20;;
51810;SDS011;52468;40.116;18.296;2022-07-15T14:42:48;2.25;;;1.05;;
51810;SDS011;52468;40.116;18.296;2022-07-15T14:45:16;1.02;;;0.88;;
51810;SDS011;52468;40.116;18.296;2022-07-15T14:47:43;2.63;;;1.45;;
51810;SDS011;52468;40.116;18.296;2022-07-15T14:50:11;1.50;;;1.15;;
51810;SDS011;52468;40.116;18.296;2022-07-15T14:52:42;1.23;;;0.73;;
51810;SDS011;52468;40.116;18.296;2022-07-15T14:55:10;0.68;;;0.60;;
51810;SDS011;52468;40.116;18.296;2022-07-15T14:57:38;2.78;;;0.98;;
51810;SDS011;52468;40.116;18.296;2022-07-15T15:00:06;0.63;;;0.63;;
51810;SDS011;52468;40.116;18.296;2022-07-15T15:02:34;1.00;;;1.00;;
51810;SDS011;52468;40.116;18.296;2022-07-15T15:05:03;2.28;;;1.00;;
51810;SDS011;52468;40.116;18.296;2022-07-15T15:07:31;2.30;;;1.08;;
51810;SDS011;52468;40.116;18.296;2022-07-15T15:09:58;1.52;;;0.95;;
51810;SDS011;52468;40.116;18.296;2022-07-15T15:12:26;2.13;;;0.90;;
51810;SDS011;52468;40.116;18.296;2022-07-15T15:14:54;1.98;;;1.25;;
51810;SDS011;52468;40.116;18.296;2022-07-15T15:17:22;4.30;;;0.60;;
51810;SDS011;52468;40.116;18.296;2022-07-15T15:19:50;1.70;;;0.80;;
51810;SDS011;52468;40.116;18.296;2022-07-15T15:22:18;3.13;;;1.08;;
51810;SDS011;52468;40.116;18.296;2022-07-15T15:24:46;1.08;;;0.80;;
51810;SDS011;52468;40.116;18.296;2022-07-15T15:27:13;2.58;;;0.82;;
51810;SDS011;52468;40.116;18.296;2022-07-15T15:29:42;1.75;;;1.10;;
51810;SDS011;52468;40.116;18.296;2022-07-15T15:32:10;1.42;;;0.50;;
51810;SDS011;52468;40.116;18.296;2022-07-15T15:34:39;1.02;;;0.70;;
51810;SDS011;52468;40.116;18.296;2022-07-15T15:37:07;1.55;;;0.60;;
51810;SDS011;52468;40.116;18.296;2022-07-15T15:39:35;0.77;;;0.77;;
51810;SDS011;52468;40.116;18.296;2022-07-15T15:42:04;1.45;;;0.70;;